Time;durP1;ratioP1;P1;durP2;ratioP2;P2;SDS_P1;SDS_P2;PMS_P1;PMS_P2;Temp;Humidity;BMP_temperature;BMP_pressure;BME280_temperature;BME280_humidity;BME280_pressure;Samples;Min_cycle;Max_cycle;Signal;HPM_P1;HPM_P2
2022/01/02 00:01:01;;;;;;;5.249999;3.7;;;;;;;2.16;98.47461;95903.88;;;;
2022/01/02 00:02:03;;;;;;;5.249999;3.7;;;;;;;2.16;98.47461;95903.88;;;;
2022/01/02 00:03:08;;;;;;;5.249999;3.7;;;;;;;2.16;98.47461;95903.88;;;;
2022/01/02 00:04:09;;;;;;;5.249999;3.7;;;;;;;2.16;98.47461;95903.88;;;;
2022/01/02 00:05:15;;;;;;;5.249999;3.7;;;;;;;2.16;98.47461;95903.88;;;;
2022/01/02 00:06:19;;;;;;;5.249999;3.7;;;;;;;2.16;98.47461;95903.88;;;;
2022/01/02 00:07:23;;;;;;;5.249999;3.7;;;;;;;2.16;98.47461;95903.88;;;;
2022/01/02 00:08:26;;;;;;;5.249999;3.7;;;;;;;2.16;98.47461;95903.88;;;;
2022/01/02 00:09:31;;;;;;;6.2;3.9;;;;;;;2.07;98.67383;95887.48;;;;
2022/01/02 00:10:33;;;;;;;6.2;3.9;;;;;;;2.07;98.67383;95887.48;;;;
2022/01/02 00:11:37;;;;;;;6.2;3.9;;;;;;;2.07;98.67383;95887.48;;;;
2022/01/02 00:12:41;;;;;;;6.2;3.9;;;;;;;2.07;98.67383;95887.48;;;;
2022/01/02 00:13:49;;;;;;;6.2;3.9;;;;;;;2.07;98.67383;95887.48;;;;
2022/01/02 00:14:52;;;;;;;6.2;3.9;;;;;;;2.07;98.67383;95887.48;;;;
2022/01/02 00:15:55;;;;;;;6.2;3.9;;;;;;;2.07;98.67383;95887.48;;;;
2022/01/02 00:16:56;;;;;;;6.2;3.9;;;;;;;2.07;98.67383;95887.48;;;;
2022/01/02 00:17:58;;;;;;;6.2;3.9;;;;;;;2.07;98.67383;95887.48;;;;
2022/01/02 00:19:06;;;;;;;6.2;3.9;;;;;;;2.07;98.67383;95887.48;;;;
2022/01/02 00:20:11;;;;;;;5.400001;3.25;;;;;;;2;98.83398;95883.4;;;;
2022/01/02 00:21:13;;;;;;;5.400001;3.25;;;;;;;2;98.83398;95883.4;;;;
2022/01/02 00:22:18;;;;;;;5.400001;3.25;;;;;;;2;98.83398;95883.4;;;;
2022/01/02 00:23:23;;;;;;;5.400001;3.25;;;;;;;2;98.83398;95883.4;;;;
2022/01/02 00:24:24;;;;;;;5.400001;3.25;;;;;;;2;98.83398;95883.4;;;;
2022/01/02 00:25:28;;;;;;;5.400001;3.25;;;;;;;2;98.83398;95883.4;;;;
2022/01/02 00:26:36;;;;;;;5.400001;3.25;;;;;;;2;98.83398;95883.4;;;;
2022/01/02 00:27:37;;;;;;;5.400001;3.25;;;;;;;2;98.83398;95883.4;;;;
2022/01/02 00:28:39;;;;;;;5.400001;3.25;;;;;;;2;98.83398;95883.4;;;;
2022/01/02 00:29:40;;;;;;;5.400001;3.25;;;;;;;2;98.83398;95883.4;;;;
2022/01/02 00:30:42;;;;;;;4.6;2.9;;;;;;;1.95;99;95861.38;;;;
2022/01/02 00:31:44;;;;;;;4.6;2.9;;;;;;;1.95;99;95861.38;;;;
2022/01/02 00:32:46;;;;;;;4.6;2.9;;;;;;;1.95;99;95861.38;;;;
2022/01/02 00:33:47;;;;;;;4.6;2.9;;;;;;;1.95;99;95861.38;;;;
2022/01/02 00:34:48;;;;;;;4.6;2.9;;;;;;;1.95;99;95861.38;;;;
2022/01/02 00:35:50;;;;;;;4.6;2.9;;;;;;;1.95;99;95861.38;;;;
2022/01/02 00:36:51;;;;;;;4.6;2.9;;;;;;;1.95;99;95861.38;;;;
2022/01/02 00:37:52;;;;;;;4.6;2.9;;;;;;;1.95;99;95861.38;;;;
2022/01/02 00:38:52;;;;;;;4.6;2.9;;;;;;;1.95;99;95861.38;;;;
2022/01/02 00:39:54;;;;;;;4.6;2.9;;;;;;;1.95;99;95861.38;;;;
2022/01/02 00:40:54;;;;;;;4.6;2.9;;;;;;;1.95;99;95861.38;;;;
2022/01/02 00:41:58;;;;;;;4.15;2.7;;;;;;;1.82;99.21875;95855.24;;;;
2022/01/02 00:43:05;;;;;;;4.15;2.7;;;;;;;1.82;99.21875;95855.24;;;;
2022/01/02 00:44:12;;;;;;;4.15;2.7;;;;;;;1.82;99.21875;95855.24;;;;
2022/01/02 00:45:21;;;;;;;4.15;2.7;;;;;;;1.82;99.21875;95855.24;;;;
2022/01/02 00:46:26;;;;;;;4.15;2.7;;;;;;;1.82;99.21875;95855.24;;;;
2022/01/02 00:47:27;;;;;;;4.15;2.7;;;;;;;1.82;99.21875;95855.24;;;;
2022/01/02 00:48:42;;;;;;;4.15;2.7;;;;;;;1.82;99.21875;95855.24;;;;
2022/01/02 00:49:45;;;;;;;4.15;2.7;;;;;;;1.82;99.21875;95855.24;;;;
2022/01/02 00:51:01;;;;;;;4.15;2.7;;;;;;;1.82;99.21875;95855.24;;;;
2022/01/02 00:52:03;;;;;;;4.15;2.7;;;;;;;1.82;99.21875;95855.24;;;;
2022/01/02 00:53:11;;;;;;;3.750001;2.6;;;;;;;1.71;99.67969;95847.69;;;;
2022/01/02 00:54:16;;;;;;;3.750001;2.6;;;;;;;1.71;99.67969;95847.69;;;;
2022/01/02 00:55:17;;;;;;;3.750001;2.6;;;;;;;1.71;99.67969;95847.69;;;;
2022/01/02 00:56:20;;;;;;;3.750001;2.6;;;;;;;1.71;99.67969;95847.69;;;;
2022/01/02 00:57:28;;;;;;;3.750001;2.6;;;;;;;1.71;99.67969;95847.69;;;;
2022/01/02 00:58:33;;;;;;;3.750001;2.6;;;;;;;1.71;99.67969;95847.69;;;;
2022/01/02 00:59:39;;;;;;;3.750001;2.6;;;;;;;1.71;99.67969;95847.69;;;;
2022/01/02 01:00:46;;;;;;;3.750001;2.6;;;;;;;1.71;99.67969;95847.69;;;;
2022/01/02 01:01:49;;;;;;;3.750001;2.6;;;;;;;1.71;99.67969;95847.69;;;;
2022/01/02 01:02:57;;;;;;;3.750001;2.6;;;;;;;1.71;99.67969;95847.69;;;;
2022/01/02 01:04:00;;;;;;;4.050001;2.299999;;;;;;;1.62;100;95852.69;;;;
2022/01/02 01:05:02;;;;;;;4.050001;2.299999;;;;;;;1.62;100;95852.69;;;;
2022/01/02 01:06:05;;;;;;;4.050001;2.299999;;;;;;;1.62;100;95852.69;;;;
2022/01/02 01:07:09;;;;;;;4.050001;2.299999;;;;;;;1.62;100;95852.69;;;;
2022/01/02 01:08:10;;;;;;;4.050001;2.299999;;;;;;;1.62;100;95852.69;;;;
2022/01/02 01:09:11;;;;;;;4.050001;2.299999;;;;;;;1.62;100;95852.69;;;;
2022/01/02 01:10:13;;;;;;;4.050001;2.299999;;;;;;;1.62;100;95852.69;;;;
2022/01/02 01:11:14;;;;;;;4.050001;2.299999;;;;;;;1.62;100;95852.69;;;;
2022/01/02 01:12:14;;;;;;;4.050001;2.299999;;;;;;;1.62;100;95852.69;;;;
2022/01/02 01:13:16;;;;;;;4.050001;2.299999;;;;;;;1.62;100;95852.69;;;;
2022/01/02 01:14:17;;;;;;;4.050001;2.299999;;;;;;;1.62;100;95852.69;;;;
2022/01/02 01:15:17;;;;;;;3.3;2.5;;;;;;;1.55;100;95847.19;;;;
2022/01/02 01:16:19;;;;;;;3.3;2.5;;;;;;;1.55;100;95847.19;;;;
2022/01/02 01:17:21;;;;;;;3.3;2.5;;;;;;;1.55;100;95847.19;;;;
2022/01/02 01:18:23;;;;;;;3.3;2.5;;;;;;;1.55;100;95847.19;;;;
2022/01/02 01:19:23;;;;;;;3.3;2.5;;;;;;;1.55;100;95847.19;;;;
2022/01/02 01:20:24;;;;;;;3.3;2.5;;;;;;;1.55;100;95847.19;;;;
2022/01/02 01:21:29;;;;;;;3.3;2.5;;;;;;;1.55;100;95847.19;;;;
2022/01/02 01:22:30;;;;;;;3.3;2.5;;;;;;;1.55;100;95847.19;;;;
2022/01/02 01:23:30;;;;;;;3.3;2.5;;;;;;;1.55;100;95847.19;;;;
2022/01/02 01:24:34;;;;;;;3.3;2.5;;;;;;;1.55;100;95847.19;;;;
2022/01/02 01:25:38;;;;;;;2.4;1.9;;;;;;;1.58;100;95853.94;;;;
2022/01/02 01:26:40;;;;;;;2.4;1.9;;;;;;;1.58;100;95853.94;;;;
2022/01/02 01:27:40;;;;;;;2.4;1.9;;;;;;;1.58;100;95853.94;;;;
2022/01/02 01:28:41;;;;;;;2.4;1.9;;;;;;;1.58;100;95853.94;;;;
2022/01/02 01:29:42;;;;;;;2.4;1.9;;;;;;;1.58;100;95853.94;;;;
2022/01/02 01:30:42;;;;;;;2.4;1.9;;;;;;;1.58;100;95853.94;;;;
2022/01/02 01:31:46;;;;;;;2.4;1.9;;;;;;;1.58;100;95853.94;;;;
2022/01/02 01:32:46;;;;;;;2.4;1.9;;;;;;;1.58;100;95853.94;;;;
2022/01/02 01:33:47;;;;;;;2.4;1.9;;;;;;;1.58;100;95853.94;;;;
2022/01/02 01:34:47;;;;;;;2.4;1.9;;;;;;;1.58;100;95853.94;;;;
2022/01/02 01:35:47;;;;;;;2.4;1.9;;;;;;;1.58;100;95853.94;;;;
2022/01/02 01:36:48;;;;;;;2.15;1.9;;;;;;;1.6;100;95865.23;;;;
2022/01/02 01:37:48;;;;;;;2.15;1.9;;;;;;;1.6;100;95865.23;;;;
2022/01/02 01:38:50;;;;;;;2.15;1.9;;;;;;;1.6;100;95865.23;;;;
2022/01/02 01:39:50;;;;;;;2.15;1.9;;;;;;;1.6;100;95865.23;;;;
2022/01/02 01:40:51;;;;;;;2.15;1.9;;;;;;;1.6;100;95865.23;;;;
2022/01/02 01:42:06;;;;;;;2.15;1.9;;;;;;;1.6;100;95865.23;;;;
2022/01/02 01:43:09;;;;;;;2.15;1.9;;;;;;;1.6;100;95865.23;;;;
2022/01/02 01:44:27;;;;;;;2.15;1.9;;;;;;;1.6;100;95865.23;;;;
2022/01/02 01:45:28;;;;;;;2.15;1.9;;;;;;;1.6;100;95865.23;;;;
2022/01/02 01:46:29;;;;;;;2.15;1.9;;;;;;;1.6;100;95865.23;;;;
2022/01/02 01:47:30;;;;;;;2.5;1.95;;;;;;;1.53;100;95856.67;;;;
2022/01/02 01:48:30;;;;;;;2.5;1.95;;;;;;;1.53;100;95856.67;;;;
2022/01/02 01:49:31;;;;;;;2.5;1.95;;;;;;;1.53;100;95856.67;;;;
2022/01/02 01:50:32;;;;;;;2.5;1.95;;;;;;;1.53;100;95856.67;;;;
2022/01/02 01:51:36;;;;;;;2.5;1.95;;;;;;;1.53;100;95856.67;;;;
2022/01/02 01:52:36;;;;;;;2.5;1.95;;;;;;;1.53;100;95856.67;;;;
2022/01/02 01:53:37;;;;;;;2.5;1.95;;;;;;;1.53;100;95856.67;;;;
2022/01/02 01:54:37;;;;;;;2.5;1.95;;;;;;;1.53;100;95856.67;;;;
2022/01/02 01:55:38;;;;;;;2.5;1.95;;;;;;;1.53;100;95856.67;;;;
2022/01/02 01:56:39;;;;;;;2.5;1.95;;;;;;;1.53;100;95856.67;;;;
2022/01/02 01:57:40;;;;;;;2.5;1.95;;;;;;;1.53;100;95856.67;;;;
2022/01/02 01:58:41;;;;;;;2.65;1.9;;;;;;;1.49;100;95834.99;;;;
2022/01/02 01:59:42;;;;;;;2.65;1.9;;;;;;;1.49;100;95834.99;;;;
2022/01/02 02:00:42;;;;;;;2.65;1.9;;;;;;;1.49;100;95834.99;;;;
2022/01/02 02:01:43;;;;;;;2.65;1.9;;;;;;;1.49;100;95834.99;;;;
2022/01/02 02:02:44;;;;;;;2.65;1.9;;;;;;;1.49;100;95834.99;;;;
2022/01/02 02:03:45;;;;;;;2.65;1.9;;;;;;;1.49;100;95834.99;;;;
2022/01/02 02:04:47;;;;;;;2.65;1.9;;;;;;;1.49;100;95834.99;;;;
2022/01/02 02:05:47;;;;;;;2.65;1.9;;;;;;;1.49;100;95834.99;;;;
2022/01/02 02:06:48;;;;;;;2.65;1.9;;;;;;;1.49;100;95834.99;;;;
2022/01/02 02:07:48;;;;;;;2.65;1.9;;;;;;;1.49;100;95834.99;;;;
2022/01/02 02:08:52;;;;;;;2.65;1.9;;;;;;;1.49;100;95834.99;;;;
2022/01/02 02:10:04;;;;;;;2.8;2.15;;;;;;;1.71;100;95827.73;;;;
2022/01/02 02:11:07;;;;;;;2.8;2.15;;;;;;;1.71;100;95827.73;;;;
2022/01/02 02:12:08;;;;;;;2.8;2.15;;;;;;;1.71;100;95827.73;;;;
2022/01/02 02:13:09;;;;;;;2.8;2.15;;;;;;;1.71;100;95827.73;;;;
2022/01/02 02:14:10;;;;;;;2.8;2.15;;;;;;;1.71;100;95827.73;;;;
2022/01/02 02:15:10;;;;;;;2.8;2.15;;;;;;;1.71;100;95827.73;;;;
2022/01/02 02:16:13;;;;;;;2.8;2.15;;;;;;;1.71;100;95827.73;;;;
2022/01/02 02:17:13;;;;;;;2.8;2.15;;;;;;;1.71;100;95827.73;;;;
2022/01/02 02:18:14;;;;;;;2.8;2.15;;;;;;;1.71;100;95827.73;;;;
2022/01/02 02:19:14;;;;;;;2.8;2.15;;;;;;;1.71;100;95827.73;;;;
2022/01/02 02:20:15;;;;;;;2.8;2.15;;;;;;;1.71;100;95827.73;;;;
2022/01/02 02:21:17;;;;;;;2.3;2;;;;;;;2.03;100;95809.02;;;;
2022/01/02 02:22:26;;;;;;;2.3;2;;;;;;;2.03;100;95809.02;;;;
2022/01/02 02:23:27;;;;;;;2.3;2;;;;;;;2.03;100;95809.02;;;;
2022/01/02 02:24:27;;;;;;;2.3;2;;;;;;;2.03;100;95809.02;;;;
2022/01/02 02:25:28;;;;;;;2.3;2;;;;;;;2.03;100;95809.02;;;;
2022/01/02 02:26:31;;;;;;;2.3;2;;;;;;;2.03;100;95809.02;;;;
2022/01/02 02:27:31;;;;;;;2.3;2;;;;;;;2.03;100;95809.02;;;;
2022/01/02 02:28:32;;;;;;;2.3;2;;;;;;;2.03;100;95809.02;;;;
2022/01/02 02:29:32;;;;;;;2.3;2;;;;;;;2.03;100;95809.02;;;;
2022/01/02 02:30:33;;;;;;;2.3;2;;;;;;;2.03;100;95809.02;;;;
2022/01/02 02:31:36;;;;;;;2.7;1.9;;;;;;;2.24;100;95801.29;;;;
2022/01/02 02:32:37;;;;;;;2.7;1.9;;;;;;;2.24;100;95801.29;;;;
2022/01/02 02:33:37;;;;;;;2.7;1.9;;;;;;;2.24;100;95801.29;;;;
2022/01/02 02:34:38;;;;;;;2.7;1.9;;;;;;;2.24;100;95801.29;;;;
2022/01/02 02:35:38;;;;;;;2.7;1.9;;;;;;;2.24;100;95801.29;;;;
2022/01/02 02:36:41;;;;;;;2.7;1.9;;;;;;;2.24;100;95801.29;;;;
2022/01/02 02:37:42;;;;;;;2.7;1.9;;;;;;;2.24;100;95801.29;;;;
2022/01/02 02:38:44;;;;;;;2.7;1.9;;;;;;;2.24;100;95801.29;;;;
2022/01/02 02:39:44;;;;;;;2.7;1.9;;;;;;;2.24;100;95801.29;;;;
2022/01/02 02:40:45;;;;;;;2.7;1.9;;;;;;;2.24;100;95801.29;;;;
2022/01/02 02:41:46;;;;;;;2.7;1.9;;;;;;;2.24;100;95801.29;;;;
2022/01/02 02:42:50;;;;;;;1.85;1.6;;;;;;;2.44;100;95779.47;;;;
2022/01/02 02:43:57;;;;;;;1.85;1.6;;;;;;;2.44;100;95779.47;;;;
2022/01/02 02:48:34;;;;;;;1.85;1.6;;;;;;;2.44;100;95779.47;;;;
2022/01/02 02:49:36;;;;;;;1.85;1.6;;;;;;;2.44;100;95779.47;;;;
2022/01/02 02:50:38;;;;;;;1.85;1.6;;;;;;;2.44;100;95779.47;;;;
2022/01/02 02:51:50;;;;;;;1.85;1.6;;;;;;;2.44;100;95779.47;;;;
2022/01/02 02:52:51;;;;;;;1.85;1.6;;;;;;;2.44;100;95779.47;;;;
2022/01/02 02:53:52;;;;;;;2.2;1.7;;;;;;;2.58;100;95778.23;;;;
2022/01/02 02:54:54;;;;;;;2.2;1.7;;;;;;;2.58;100;95778.23;;;;
2022/01/02 02:55:57;;;;;;;2.2;1.7;;;;;;;2.58;100;95778.23;;;;
2022/01/02 02:56:59;;;;;;;2.2;1.7;;;;;;;2.58;100;95778.23;;;;
2022/01/02 02:58:17;;;;;;;2.2;1.7;;;;;;;2.58;100;95778.23;;;;
2022/01/02 02:59:17;;;;;;;2.2;1.7;;;;;;;2.58;100;95778.23;;;;
2022/01/02 03:00:18;;;;;;;2.2;1.7;;;;;;;2.58;100;95778.23;;;;
2022/01/02 03:01:18;;;;;;;2.2;1.7;;;;;;;2.58;100;95778.23;;;;
2022/01/02 03:02:20;;;;;;;2.2;1.7;;;;;;;2.58;100;95778.23;;;;
2022/01/02 03:03:21;;;;;;;2.2;1.7;;;;;;;2.58;100;95778.23;;;;
2022/01/02 03:04:21;;;;;;;1.65;1.55;;;;;;;2.66;100;95751.51;;;;
2022/01/02 03:05:23;;;;;;;1.65;1.55;;;;;;;2.66;100;95751.51;;;;
2022/01/02 03:06:24;;;;;;;1.65;1.55;;;;;;;2.66;100;95751.51;;;;
2022/01/02 03:07:24;;;;;;;1.65;1.55;;;;;;;2.66;100;95751.51;;;;
2022/01/02 03:08:25;;;;;;;1.65;1.55;;;;;;;2.66;100;95751.51;;;;
2022/01/02 03:09:37;;;;;;;1.65;1.55;;;;;;;2.66;100;95751.51;;;;
2022/01/02 03:10:38;;;;;;;1.65;1.55;;;;;;;2.66;100;95751.51;;;;
2022/01/02 03:11:39;;;;;;;1.65;1.55;;;;;;;2.66;100;95751.51;;;;
2022/01/02 03:12:41;;;;;;;1.65;1.55;;;;;;;2.66;100;95751.51;;;;
2022/01/02 03:13:42;;;;;;;1.65;1.55;;;;;;;2.66;100;95751.51;;;;
2022/01/02 03:14:44;;;;;;;1.65;1.55;;;;;;;2.66;100;95751.51;;;;
2022/01/02 03:15:44;;;;;;;2.35;1.6;;;;;;;2.55;100;95761.27;;;;
2022/01/02 03:16:45;;;;;;;2.35;1.6;;;;;;;2.55;100;95761.27;;;;
2022/01/02 03:17:45;;;;;;;2.35;1.6;;;;;;;2.55;100;95761.27;;;;
2022/01/02 03:18:46;;;;;;;2.35;1.6;;;;;;;2.55;100;95761.27;;;;
2022/01/02 03:19:47;;;;;;;2.35;1.6;;;;;;;2.55;100;95761.27;;;;
2022/01/02 03:20:47;;;;;;;2.35;1.6;;;;;;;2.55;100;95761.27;;;;
2022/01/02 03:21:48;;;;;;;2.35;1.6;;;;;;;2.55;100;95761.27;;;;
2022/01/02 03:22:48;;;;;;;2.35;1.6;;;;;;;2.55;100;95761.27;;;;
2022/01/02 03:23:49;;;;;;;2.35;1.6;;;;;;;2.55;100;95761.27;;;;
2022/01/02 03:24:52;;;;;;;2.35;1.6;;;;;;;2.55;100;95761.27;;;;
2022/01/02 03:25:52;;;;;;;2.35;1.6;;;;;;;2.55;100;95761.27;;;;
2022/01/02 03:26:53;;;;;;;3.55;1.45;;;;;;;2.37;100;95743.8;;;;
2022/01/02 03:27:53;;;;;;;3.55;1.45;;;;;;;2.37;100;95743.8;;;;
2022/01/02 03:28:54;;;;;;;3.55;1.45;;;;;;;2.37;100;95743.8;;;;
2022/01/02 03:29:54;;;;;;;3.55;1.45;;;;;;;2.37;100;95743.8;;;;
2022/01/02 03:30:55;;;;;;;3.55;1.45;;;;;;;2.37;100;95743.8;;;;
2022/01/02 03:31:55;;;;;;;3.55;1.45;;;;;;;2.37;100;95743.8;;;;
2022/01/02 03:32:56;;;;;;;3.55;1.45;;;;;;;2.37;100;95743.8;;;;
2022/01/02 03:33:56;;;;;;;3.55;1.45;;;;;;;2.37;100;95743.8;;;;
2022/01/02 03:34:57;;;;;;;3.55;1.45;;;;;;;2.37;100;95743.8;;;;
2022/01/02 03:35:57;;;;;;;3.55;1.45;;;;;;;2.37;100;95743.8;;;;
2022/01/02 03:36:59;;;;;;;3.55;1.45;;;;;;;2.37;100;95743.8;;;;
2022/01/02 03:37:59;;;;;;;2.1;1.6;;;;;;;2.27;100;95723.68;;;;
2022/01/02 03:39:03;;;;;;;2.1;1.6;;;;;;;2.27;100;95723.68;;;;
2022/01/02 03:40:04;;;;;;;2.1;1.6;;;;;;;2.27;100;95723.68;;;;
2022/01/02 03:41:07;;;;;;;2.1;1.6;;;;;;;2.27;100;95723.68;;;;
2022/01/02 03:42:08;;;;;;;2.1;1.6;;;;;;;2.27;100;95723.68;;;;
2022/01/02 03:43:08;;;;;;;2.1;1.6;;;;;;;2.27;100;95723.68;;;;
2022/01/02 03:44:09;;;;;;;2.1;1.6;;;;;;;2.27;100;95723.68;;;;
2022/01/02 03:45:09;;;;;;;2.1;1.6;;;;;;;2.27;100;95723.68;;;;
2022/01/02 03:46:10;;;;;;;2.1;1.6;;;;;;;2.27;100;95723.68;;;;
2022/01/02 03:47:12;;;;;;;2.1;1.6;;;;;;;2.27;100;95723.68;;;;
2022/01/02 03:48:13;;;;;;;1.8;1.6;;;;;;;2.14;100;95727.33;;;;
2022/01/02 03:49:13;;;;;;;1.8;1.6;;;;;;;2.14;100;95727.33;;;;
2022/01/02 03:50:14;;;;;;;1.8;1.6;;;;;;;2.14;100;95727.33;;;;
2022/01/02 03:51:15;;;;;;;1.8;1.6;;;;;;;2.14;100;95727.33;;;;
2022/01/02 03:52:16;;;;;;;1.8;1.6;;;;;;;2.14;100;95727.33;;;;
2022/01/02 03:53:16;;;;;;;1.8;1.6;;;;;;;2.14;100;95727.33;;;;
2022/01/02 03:54:17;;;;;;;1.8;1.6;;;;;;;2.14;100;95727.33;;;;
2022/01/02 03:55:17;;;;;;;1.8;1.6;;;;;;;2.14;100;95727.33;;;;
2022/01/02 03:56:18;;;;;;;1.8;1.6;;;;;;;2.14;100;95727.33;;;;
2022/01/02 03:57:18;;;;;;;1.8;1.6;;;;;;;2.14;100;95727.33;;;;
2022/01/02 03:58:19;;;;;;;1.8;1.6;;;;;;;2.14;100;95727.33;;;;
2022/01/02 03:59:20;;;;;;;1.5;1.4;;;;;;;2.03;100;95705.06;;;;
2022/01/02 04:00:21;;;;;;;1.5;1.4;;;;;;;2.03;100;95705.06;;;;
2022/01/02 04:01:21;;;;;;;1.5;1.4;;;;;;;2.03;100;95705.06;;;;
2022/01/02 04:02:22;;;;;;;1.5;1.4;;;;;;;2.03;100;95705.06;;;;
2022/01/02 04:03:23;;;;;;;1.5;1.4;;;;;;;2.03;100;95705.06;;;;
2022/01/02 04:04:23;;;;;;;1.5;1.4;;;;;;;2.03;100;95705.06;;;;
2022/01/02 04:05:23;;;;;;;1.5;1.4;;;;;;;2.03;100;95705.06;;;;
2022/01/02 04:06:24;;;;;;;1.5;1.4;;;;;;;2.03;100;95705.06;;;;
2022/01/02 04:07:24;;;;;;;1.5;1.4;;;;;;;2.03;100;95705.06;;;;
2022/01/02 04:08:25;;;;;;;1.5;1.4;;;;;;;2.03;100;95705.06;;;;
2022/01/02 04:09:25;;;;;;;1.5;1.4;;;;;;;2.03;100;95705.06;;;;
2022/01/02 04:10:26;;;;;;;2.2;1.8;;;;;;;1.89;100;95689.83;;;;
2022/01/02 04:11:26;;;;;;;2.2;1.8;;;;;;;1.89;100;95689.83;;;;
2022/01/02 04:12:27;;;;;;;2.2;1.8;;;;;;;1.89;100;95689.83;;;;
2022/01/02 04:13:27;;;;;;;2.2;1.8;;;;;;;1.89;100;95689.83;;;;
2022/01/02 04:14:28;;;;;;;2.2;1.8;;;;;;;1.89;100;95689.83;;;;
2022/01/02 04:15:28;;;;;;;2.2;1.8;;;;;;;1.89;100;95689.83;;;;
2022/01/02 04:16:30;;;;;;;2.2;1.8;;;;;;;1.89;100;95689.83;;;;
2022/01/02 04:17:32;;;;;;;2.2;1.8;;;;;;;1.89;100;95689.83;;;;
2022/01/02 04:18:32;;;;;;;2.2;1.8;;;;;;;1.89;100;95689.83;;;;
2022/01/02 04:19:33;;;;;;;2.2;1.8;;;;;;;1.89;100;95689.83;;;;
2022/01/02 04:20:33;;;;;;;2.2;1.8;;;;;;;1.89;100;95689.83;;;;
2022/01/02 04:21:34;;;;;;;2.4;1.6;;;;;;;1.73;100;95695.22;;;;
2022/01/02 04:22:34;;;;;;;2.4;1.6;;;;;;;1.73;100;95695.22;;;;
2022/01/02 04:23:37;;;;;;;2.4;1.6;;;;;;;1.73;100;95695.22;;;;
2022/01/02 04:24:38;;;;;;;2.4;1.6;;;;;;;1.73;100;95695.22;;;;
2022/01/02 04:25:38;;;;;;;2.4;1.6;;;;;;;1.73;100;95695.22;;;;
2022/01/02 04:26:39;;;;;;;2.4;1.6;;;;;;;1.73;100;95695.22;;;;
2022/01/02 04:27:40;;;;;;;2.4;1.6;;;;;;;1.73;100;95695.22;;;;
2022/01/02 04:28:40;;;;;;;2.4;1.6;;;;;;;1.73;100;95695.22;;;;
2022/01/02 04:29:41;;;;;;;2.4;1.6;;;;;;;1.73;100;95695.22;;;;
2022/01/02 04:30:41;;;;;;;2.4;1.6;;;;;;;1.73;100;95695.22;;;;
2022/01/02 04:31:42;;;;;;;2.4;1.6;;;;;;;1.73;100;95695.22;;;;
2022/01/02 04:32:42;;;;;;;2.4;1.6;;;;;;;1.73;100;95695.22;;;;
2022/01/02 04:33:43;;;;;;;2.4;1.6;;;;;;;1.73;100;95695.22;;;;
2022/01/02 04:34:43;;;;;;;2.4;1.6;;;;;;;1.73;100;95695.22;;;;
2022/01/02 04:35:44;;;;;;;2.4;1.6;;;;;;;1.73;100;95695.22;;;;
2022/01/02 04:36:45;;;;;;;2.4;1.6;;;;;;;1.73;100;95695.22;;;;
2022/01/02 04:37:46;;;;;;;2.4;1.6;;;;;;;1.73;100;95695.22;;;;
2022/01/02 04:38:47;;;;;;;2.4;1.6;;;;;;;1.73;100;95695.22;;;;
2022/01/02 04:39:47;;;;;;;2.4;1.6;;;;;;;1.73;100;95695.22;;;;
2022/01/02 04:40:48;;;;;;;2.4;1.6;;;;;;;1.73;100;95695.22;;;;
2022/01/02 04:41:49;;;;;;;2.4;1.6;;;;;;;1.73;100;95695.22;;;;
2022/01/02 04:42:49;;;;;;;2.4;1.6;;;;;;;1.73;100;95695.22;;;;
2022/01/02 04:43:50;;;;;;;2.1;1.55;;;;;;;1.41;100;95673.61;;;;
2022/01/02 04:44:50;;;;;;;2.1;1.55;;;;;;;1.41;100;95673.61;;;;
2022/01/02 04:45:51;;;;;;;2.1;1.55;;;;;;;1.41;100;95673.61;;;;
2022/01/02 04:46:52;;;;;;;2.1;1.55;;;;;;;1.41;100;95673.61;;;;
2022/01/02 04:47:53;;;;;;;2.1;1.55;;;;;;;1.41;100;95673.61;;;;
2022/01/02 04:48:53;;;;;;;2.1;1.55;;;;;;;1.41;100;95673.61;;;;
2022/01/02 04:49:54;;;;;;;2.1;1.55;;;;;;;1.41;100;95673.61;;;;
2022/01/02 04:50:54;;;;;;;2.1;1.55;;;;;;;1.41;100;95673.61;;;;
2022/01/02 04:51:55;;;;;;;2.1;1.55;;;;;;;1.41;100;95673.61;;;;
2022/01/02 04:52:56;;;;;;;2.1;1.55;;;;;;;1.41;100;95673.61;;;;
2022/01/02 04:53:56;;;;;;;2.1;1.55;;;;;;;1.41;100;95673.61;;;;
2022/01/02 04:54:57;;;;;;;2.1;1.5;;;;;;;1.25;100;95679.89;;;;
2022/01/02 04:55:57;;;;;;;2.1;1.5;;;;;;;1.25;100;95679.89;;;;
2022/01/02 04:56:58;;;;;;;2.1;1.5;;;;;;;1.25;100;95679.89;;;;
2022/01/02 04:57:58;;;;;;;2.1;1.5;;;;;;;1.25;100;95679.89;;;;
2022/01/02 04:58:58;;;;;;;2.1;1.5;;;;;;;1.25;100;95679.89;;;;
2022/01/02 04:59:59;;;;;;;2.1;1.5;;;;;;;1.25;100;95679.89;;;;
2022/01/02 05:00:59;;;;;;;2.1;1.5;;;;;;;1.25;100;95679.89;;;;
2022/01/02 05:02:00;;;;;;;2.1;1.5;;;;;;;1.25;100;95679.89;;;;
2022/01/02 05:03:00;;;;;;;2.1;1.5;;;;;;;1.25;100;95679.89;;;;
2022/01/02 05:04:01;;;;;;;2.1;1.5;;;;;;;1.25;100;95679.89;;;;
2022/01/02 05:05:02;;;;;;;1.95;1.55;;;;;;;1.11;100;95668.55;;;;
2022/01/02 05:06:03;;;;;;;1.95;1.55;;;;;;;1.11;100;95668.55;;;;
2022/01/02 05:07:05;;;;;;;1.95;1.55;;;;;;;1.11;100;95668.55;;;;
2022/01/02 05:08:06;;;;;;;1.95;1.55;;;;;;;1.11;100;95668.55;;;;
2022/01/02 05:09:06;;;;;;;1.95;1.55;;;;;;;1.11;100;95668.55;;;;
2022/01/02 05:10:07;;;;;;;1.95;1.55;;;;;;;1.11;100;95668.55;;;;
2022/01/02 05:11:08;;;;;;;1.95;1.55;;;;;;;1.11;100;95668.55;;;;
2022/01/02 05:12:09;;;;;;;1.95;1.55;;;;;;;1.11;100;95668.55;;;;
2022/01/02 05:13:09;;;;;;;1.95;1.55;;;;;;;1.11;100;95668.55;;;;
2022/01/02 05:14:10;;;;;;;1.95;1.55;;;;;;;1.11;100;95668.55;;;;
2022/01/02 05:15:10;;;;;;;1.95;1.55;;;;;;;1.11;100;95668.55;;;;
2022/01/02 05:16:11;;;;;;;2;1.75;;;;;;;1.01;100;95655;;;;
2022/01/02 05:17:11;;;;;;;2;1.75;;;;;;;1.01;100;95655;;;;
2022/01/02 05:18:12;;;;;;;2;1.75;;;;;;;1.01;100;95655;;;;
2022/01/02 05:19:12;;;;;;;2;1.75;;;;;;;1.01;100;95655;;;;
2022/01/02 05:20:13;;;;;;;2;1.75;;;;;;;1.01;100;95655;;;;
2022/01/02 05:21:13;;;;;;;2;1.75;;;;;;;1.01;100;95655;;;;
2022/01/02 05:22:14;;;;;;;2;1.75;;;;;;;1.01;100;95655;;;;
2022/01/02 05:23:15;;;;;;;2;1.75;;;;;;;1.01;100;95655;;;;
2022/01/02 05:24:16;;;;;;;2;1.75;;;;;;;1.01;100;95655;;;;
2022/01/02 05:25:16;;;;;;;2;1.75;;;;;;;1.01;100;95655;;;;
2022/01/02 05:26:17;;;;;;;2;1.75;;;;;;;1.01;100;95655;;;;
2022/01/02 05:27:17;;;;;;;2.55;1.8;;;;;;;0.95;100;95643.33;;;;
2022/01/02 05:28:18;;;;;;;2.55;1.8;;;;;;;0.95;100;95643.33;;;;
2022/01/02 05:29:19;;;;;;;2.55;1.8;;;;;;;0.95;100;95643.33;;;;
2022/01/02 05:30:19;;;;;;;2.55;1.8;;;;;;;0.95;100;95643.33;;;;
2022/01/02 05:31:20;;;;;;;2.55;1.8;;;;;;;0.95;100;95643.33;;;;
2022/01/02 05:32:20;;;;;;;2.55;1.8;;;;;;;0.95;100;95643.33;;;;
2022/01/02 05:33:21;;;;;;;2.55;1.8;;;;;;;0.95;100;95643.33;;;;
2022/01/02 05:34:21;;;;;;;2.55;1.8;;;;;;;0.95;100;95643.33;;;;
2022/01/02 05:35:22;;;;;;;2.55;1.8;;;;;;;0.95;100;95643.33;;;;
2022/01/02 05:36:22;;;;;;;2.55;1.8;;;;;;;0.95;100;95643.33;;;;
2022/01/02 05:37:23;;;;;;;2.55;1.8;;;;;;;0.95;100;95643.33;;;;
2022/01/02 05:38:23;;;;;;;2.55;1.8;;;;;;;0.95;100;95643.33;;;;
2022/01/02 05:39:24;;;;;;;2.55;1.8;;;;;;;0.95;100;95643.33;;;;
2022/01/02 05:40:25;;;;;;;2.55;1.8;;;;;;;0.95;100;95643.33;;;;
2022/01/02 05:41:27;;;;;;;2.55;1.8;;;;;;;0.95;100;95643.33;;;;
2022/01/02 05:42:27;;;;;;;2.55;1.8;;;;;;;0.95;100;95643.33;;;;
2022/01/02 05:43:29;;;;;;;2.55;1.8;;;;;;;0.95;100;95643.33;;;;
2022/01/02 05:44:30;;;;;;;2.55;1.8;;;;;;;0.95;100;95643.33;;;;
2022/01/02 05:45:31;;;;;;;2.55;1.8;;;;;;;0.95;100;95643.33;;;;
2022/01/02 05:46:32;;;;;;;2.55;1.8;;;;;;;0.95;100;95643.33;;;;
2022/01/02 05:47:33;;;;;;;2.55;1.8;;;;;;;0.95;100;95643.33;;;;
2022/01/02 05:48:33;;;;;;;2.55;1.8;;;;;;;0.95;100;95643.33;;;;
2022/01/02 05:49:34;;;;;;;3.25;2;;;;;;;0.78;100;95626.21;;;;
2022/01/02 05:50:34;;;;;;;3.25;2;;;;;;;0.78;100;95626.21;;;;
2022/01/02 05:51:35;;;;;;;3.25;2;;;;;;;0.78;100;95626.21;;;;
2022/01/02 05:52:36;;;;;;;3.25;2;;;;;;;0.78;100;95626.21;;;;
2022/01/02 05:53:36;;;;;;;3.25;2;;;;;;;0.78;100;95626.21;;;;
2022/01/02 05:54:37;;;;;;;3.25;2;;;;;;;0.78;100;95626.21;;;;
2022/01/02 05:55:37;;;;;;;3.25;2;;;;;;;0.78;100;95626.21;;;;
2022/01/02 05:56:38;;;;;;;3.25;2;;;;;;;0.78;100;95626.21;;;;
2022/01/02 05:57:38;;;;;;;3.25;2;;;;;;;0.78;100;95626.21;;;;
2022/01/02 05:58:39;;;;;;;3.25;2;;;;;;;0.78;100;95626.21;;;;
2022/01/02 05:59:40;;;;;;;3.25;2;;;;;;;0.78;100;95626.21;;;;
2022/01/02 06:00:41;;;;;;;2.5;1.95;;;;;;;0.7;100;95618.69;;;;
2022/01/02 06:01:41;;;;;;;2.5;1.95;;;;;;;0.7;100;95618.69;;;;
2022/01/02 06:02:41;;;;;;;2.5;1.95;;;;;;;0.7;100;95618.69;;;;
2022/01/02 06:03:42;;;;;;;2.5;1.95;;;;;;;0.7;100;95618.69;;;;
2022/01/02 06:04:42;;;;;;;2.5;1.95;;;;;;;0.7;100;95618.69;;;;
2022/01/02 06:05:43;;;;;;;2.5;1.95;;;;;;;0.7;100;95618.69;;;;
2022/01/02 06:06:44;;;;;;;2.5;1.95;;;;;;;0.7;100;95618.69;;;;
2022/01/02 06:07:45;;;;;;;2.5;1.95;;;;;;;0.7;100;95618.69;;;;
2022/01/02 06:08:45;;;;;;;2.5;1.95;;;;;;;0.7;100;95618.69;;;;
2022/01/02 06:09:46;;;;;;;2.5;1.95;;;;;;;0.7;100;95618.69;;;;
2022/01/02 06:10:46;;;;;;;2.5;1.95;;;;;;;0.7;100;95618.69;;;;
2022/01/02 06:11:47;;;;;;;2.2;1.7;;;;;;;0.72;100;95610.05;;;;
2022/01/02 06:12:47;;;;;;;2.2;1.7;;;;;;;0.72;100;95610.05;;;;
2022/01/02 06:13:47;;;;;;;2.2;1.7;;;;;;;0.72;100;95610.05;;;;
2022/01/02 06:14:48;;;;;;;2.2;1.7;;;;;;;0.72;100;95610.05;;;;
2022/01/02 06:15:49;;;;;;;2.2;1.7;;;;;;;0.72;100;95610.05;;;;
2022/01/02 06:16:49;;;;;;;2.2;1.7;;;;;;;0.72;100;95610.05;;;;
2022/01/02 06:17:50;;;;;;;2.2;1.7;;;;;;;0.72;100;95610.05;;;;
2022/01/02 06:18:52;;;;;;;2.2;1.7;;;;;;;0.72;100;95610.05;;;;
2022/01/02 06:19:52;;;;;;;2.2;1.7;;;;;;;0.72;100;95610.05;;;;
2022/01/02 06:20:53;;;;;;;2.2;1.7;;;;;;;0.72;100;95610.05;;;;
2022/01/02 06:21:53;;;;;;;2.55;1.85;;;;;;;0.75;100;95605.22;;;;
2022/01/02 06:22:54;;;;;;;2.55;1.85;;;;;;;0.75;100;95605.22;;;;
2022/01/02 06:23:54;;;;;;;2.55;1.85;;;;;;;0.75;100;95605.22;;;;
2022/01/02 06:24:55;;;;;;;2.55;1.85;;;;;;;0.75;100;95605.22;;;;
2022/01/02 06:25:56;;;;;;;2.55;1.85;;;;;;;0.75;100;95605.22;;;;
2022/01/02 06:26:56;;;;;;;2.55;1.85;;;;;;;0.75;100;95605.22;;;;
2022/01/02 06:27:57;;;;;;;2.55;1.85;;;;;;;0.75;100;95605.22;;;;
2022/01/02 06:28:57;;;;;;;2.55;1.85;;;;;;;0.75;100;95605.22;;;;